createdAt,value
2023-12-20T00:01:08.802Z,0.52
2023-12-20T00:03:41.858Z,0.50
2023-12-20T00:06:10.300Z,0.60
2023-12-20T00:08:37.180Z,0.60
2023-12-20T00:11:03.896Z,0.50
2023-12-20T00:13:30.472Z,0.70
2023-12-20T00:15:57.109Z,0.60
2023-12-20T00:18:24.616Z,0.50
2023-12-20T00:20:51.223Z,0.60
2023-12-20T00:23:17.895Z,0.50
2023-12-20T00:25:44.531Z,0.60
2023-12-20T00:28:11.200Z,1.13
2023-12-20T00:30:37.925Z,1.73
2023-12-20T00:33:04.900Z,0.53
2023-12-20T00:35:31.507Z,0.50
2023-12-20T00:37:59.932Z,0.63
2023-12-20T00:40:26.820Z,0.50
2023-12-20T00:42:53.618Z,0.55
2023-12-20T00:45:20.283Z,0.50
2023-12-20T00:47:47.129Z,0.50
2023-12-20T00:50:14.193Z,0.50
2023-12-20T00:52:40.922Z,0.45
2023-12-20T00:55:07.879Z,0.40
2023-12-20T00:57:35.131Z,1.17
2023-12-20T01:00:02.030Z,1.10
2023-12-20T01:02:28.549Z,0.57
2023-12-20T01:04:55.075Z,0.45
2023-12-20T01:07:21.850Z,0.50
2023-12-20T01:09:48.561Z,0.80
2023-12-20T01:12:15.239Z,0.70
2023-12-20T01:14:41.876Z,0.60
2023-12-20T01:17:08.426Z,0.50
2023-12-20T01:19:35.100Z,2.05
2023-12-20T01:22:01.844Z,0.50
2023-12-20T01:24:28.404Z,0.60
2023-12-20T01:26:55.020Z,0.50
2023-12-20T01:29:21.637Z,0.50
2023-12-20T01:31:48.224Z,0.50
2023-12-20T01:34:15.030Z,0.87
2023-12-20T01:36:41.830Z,1.42
2023-12-20T01:39:16.667Z,0.60
2023-12-20T01:41:51.821Z,0.50
2023-12-20T01:44:18.577Z,0.50
2023-12-20T01:46:45.359Z,0.50
2023-12-20T01:49:12.416Z,2.25
2023-12-20T01:51:39.792Z,1.65
2023-12-20T01:54:06.608Z,2.00
2023-12-20T01:56:33.821Z,0.70
2023-12-20T01:59:01.740Z,0.50
2023-12-20T02:01:29.637Z,0.50
2023-12-20T02:03:57.822Z,0.68
2023-12-20T02:06:25.756Z,0.80
2023-12-20T02:08:52.497Z,0.50
2023-12-20T02:11:19.218Z,0.80
2023-12-20T02:13:45.891Z,0.50
2023-12-20T02:16:12.470Z,1.05
2023-12-20T02:18:40.367Z,1.27
2023-12-20T02:21:07.214Z,0.65
2023-12-20T02:23:33.768Z,0.40
2023-12-20T02:26:00.357Z,0.38
2023-12-20T02:28:27.958Z,0.77
2023-12-20T02:30:54.694Z,0.50
2023-12-20T02:33:21.291Z,1.23
2023-12-20T02:35:48.690Z,1.07
2023-12-20T02:38:15.265Z,0.60
2023-12-20T02:40:41.909Z,0.68
2023-12-20T02:43:16.264Z,0.50
2023-12-20T02:45:43.082Z,0.60
2023-12-20T02:48:09.685Z,0.60
2023-12-20T02:50:36.311Z,2.13
2023-12-20T02:53:02.973Z,1.27
2023-12-20T02:55:29.554Z,0.60
2023-12-20T02:57:56.352Z,0.50
2023-12-20T03:00:22.993Z,0.40
2023-12-20T03:02:49.583Z,0.65
2023-12-20T03:05:16.232Z,0.52
2023-12-20T03:07:43.084Z,0.40
2023-12-20T03:10:16.314Z,0.50
2023-12-20T03:12:47.793Z,0.50
2023-12-20T03:15:14.448Z,0.65
2023-12-20T03:17:41.035Z,0.50
2023-12-20T03:20:08.586Z,0.50
2023-12-20T03:22:35.509Z,1.88
2023-12-20T03:25:02.149Z,0.90
2023-12-20T03:27:28.746Z,0.50
2023-12-20T03:29:55.364Z,0.50
2023-12-20T03:32:21.936Z,0.60
2023-12-20T03:34:49.702Z,0.55
2023-12-20T03:37:16.545Z,0.50
2023-12-20T03:39:43.222Z,0.50
2023-12-20T03:42:09.898Z,0.75
2023-12-20T03:44:39.833Z,0.50
2023-12-20T03:47:07.609Z,0.47
2023-12-20T03:49:34.440Z,0.50
2023-12-20T03:52:01.136Z,0.50
2023-12-20T03:54:27.713Z,0.70
2023-12-20T03:56:54.280Z,0.50
2023-12-20T03:59:21.272Z,2.70
2023-12-20T04:01:47.967Z,2.40
2023-12-20T04:04:15.122Z,2.00
2023-12-20T04:06:42.104Z,1.65
2023-12-20T04:09:10.383Z,2.08
2023-12-20T04:11:38.016Z,2.15
2023-12-20T04:14:06.237Z,2.40
2023-12-20T04:16:32.820Z,1.65
2023-12-20T04:18:59.749Z,2.30
2023-12-20T04:21:26.400Z,2.03
2023-12-20T04:23:53.016Z,2.80
2023-12-20T04:26:19.583Z,2.70
2023-12-20T04:28:46.247Z,2.42
2023-12-20T04:31:13.041Z,2.25
2023-12-20T04:33:39.713Z,2.58
2023-12-20T04:36:06.404Z,2.00
2023-12-20T04:38:33.015Z,2.43
2023-12-20T04:40:59.633Z,2.65
2023-12-20T04:43:26.200Z,2.67
2023-12-20T04:45:52.985Z,2.42
2023-12-20T04:48:22.147Z,2.17
2023-12-20T04:50:48.740Z,2.13
2023-12-20T04:53:15.309Z,3.08
2023-12-20T04:55:41.879Z,3.25
2023-12-20T04:58:08.431Z,2.47
2023-12-20T05:00:35.105Z,2.42
2023-12-20T05:03:01.733Z,1.63
2023-12-20T05:05:28.422Z,2.13
2023-12-20T05:07:55.092Z,1.88
2023-12-20T05:10:21.743Z,2.13
2023-12-20T05:12:48.420Z,2.00
2023-12-20T05:15:14.953Z,2.07
2023-12-20T05:17:42.071Z,1.90
2023-12-20T05:20:09.364Z,2.30
2023-12-20T05:22:35.903Z,2.00
2023-12-20T05:25:02.560Z,2.33
2023-12-20T05:27:29.183Z,2.17
2023-12-20T05:29:58.845Z,1.67
2023-12-20T05:32:26.496Z,2.17
2023-12-20T05:34:53.331Z,1.92
2023-12-20T05:37:20.107Z,1.67
2023-12-20T05:39:46.917Z,2.53
2023-12-20T05:42:13.609Z,1.77
2023-12-20T05:44:40.291Z,2.42
2023-12-20T05:47:06.946Z,2.20
2023-12-20T05:49:33.589Z,2.25
2023-12-20T05:52:00.311Z,2.10
2023-12-20T05:54:26.872Z,2.08
2023-12-20T05:56:53.423Z,2.80
2023-12-20T05:59:19.968Z,2.60
2023-12-20T06:01:46.616Z,2.08
2023-12-20T06:04:13.416Z,1.43
2023-12-20T06:06:43.881Z,1.85
2023-12-20T06:09:10.984Z,2.13
2023-12-20T06:11:37.574Z,2.25
2023-12-20T06:14:04.184Z,2.15
2023-12-20T06:16:30.821Z,1.73
2023-12-20T06:18:57.530Z,2.33
2023-12-20T06:21:24.123Z,1.58
2023-12-20T06:23:50.718Z,2.13
2023-12-20T06:26:17.258Z,2.33
2023-12-20T06:28:43.980Z,1.85
2023-12-20T06:31:10.696Z,1.97
2023-12-20T06:33:37.301Z,2.35
2023-12-20T06:36:04.283Z,2.78
2023-12-20T06:38:30.890Z,1.95
2023-12-20T06:40:58.680Z,3.60
2023-12-20T06:43:37.497Z,2.43
2023-12-20T06:46:10.717Z,2.33
2023-12-20T06:48:37.265Z,2.30
2023-12-20T06:51:03.890Z,2.33
2023-12-20T06:53:30.863Z,2.50
2023-12-20T06:55:57.781Z,2.27
2023-12-20T06:58:24.597Z,2.47
2023-12-20T07:00:52.781Z,2.97
2023-12-20T07:03:19.445Z,2.03
2023-12-20T07:05:46.090Z,2.45
2023-12-20T07:08:15.377Z,2.67
2023-12-20T07:10:42.653Z,2.78
2023-12-20T07:13:09.462Z,2.53
2023-12-20T07:15:36.977Z,1.67
2023-12-20T07:18:03.858Z,2.58
2023-12-20T07:20:30.537Z,1.87
2023-12-20T07:22:57.099Z,2.35
2023-12-20T07:25:23.772Z,2.10
2023-12-20T07:27:50.653Z,2.15
2023-12-20T07:30:17.653Z,2.00
2023-12-20T07:32:44.366Z,2.00
2023-12-20T07:35:11.302Z,1.55
2023-12-20T07:37:37.899Z,3.15
2023-12-20T07:40:06.301Z,1.60
2023-12-20T07:42:32.888Z,2.17
2023-12-20T07:45:00.018Z,2.43
2023-12-20T07:47:26.701Z,2.00
2023-12-20T07:49:53.749Z,2.13
2023-12-20T07:52:20.614Z,2.53
2023-12-20T07:54:47.471Z,1.70
2023-12-20T07:57:14.157Z,2.13
2023-12-20T07:59:40.802Z,2.08
2023-12-20T08:02:07.887Z,1.77
2023-12-20T08:04:34.635Z,2.20
2023-12-20T08:07:01.550Z,2.33
2023-12-20T08:09:28.294Z,1.80
2023-12-20T08:11:54.836Z,1.58
2023-12-20T08:14:21.402Z,1.73
2023-12-20T08:16:48.029Z,1.60
2023-12-20T08:19:15.030Z,2.67
2023-12-20T08:21:41.776Z,1.60
2023-12-20T08:24:09.310Z,2.08
2023-12-20T08:26:36.000Z,1.90
2023-12-20T08:29:02.956Z,1.85
2023-12-20T08:31:30.072Z,2.58
2023-12-20T08:33:57.262Z,2.40
2023-12-20T08:36:24.760Z,1.85
2023-12-20T08:38:52.134Z,1.80
2023-12-20T08:41:19.066Z,2.88
2023-12-20T08:43:45.787Z,1.85
2023-12-20T08:46:13.176Z,2.20
2023-12-20T08:48:40.236Z,2.45
2023-12-20T08:51:10.574Z,2.92
2023-12-20T08:53:37.552Z,2.40
2023-12-20T08:56:04.508Z,2.92
2023-12-20T08:58:31.274Z,2.90
2023-12-20T09:00:59.042Z,2.35
2023-12-20T09:03:25.910Z,2.53
2023-12-20T09:05:52.487Z,2.00
2023-12-20T09:08:19.130Z,2.40
2023-12-20T09:10:45.938Z,1.97
2023-12-20T09:13:13.257Z,2.17
2023-12-20T09:15:39.954Z,2.42
2023-12-20T09:18:07.023Z,1.83
2023-12-20T09:20:34.796Z,2.72
2023-12-20T09:23:01.633Z,2.90
2023-12-20T09:25:28.628Z,1.80
2023-12-20T09:27:55.452Z,2.25
2023-12-20T09:30:27.018Z,3.17
2023-12-20T09:32:55.651Z,2.67
2023-12-20T09:35:23.354Z,1.90
2023-12-20T09:37:50.781Z,2.03
2023-12-20T09:40:20.873Z,2.10
2023-12-20T09:43:05.913Z,1.92
2023-12-20T09:45:33.699Z,1.90
2023-12-20T09:48:01.213Z,2.03
2023-12-20T09:50:28.768Z,2.00
2023-12-20T09:53:00.510Z,2.40
2023-12-20T09:55:29.261Z,1.60
2023-12-20T09:57:56.110Z,2.13
2023-12-20T10:00:22.832Z,2.30
2023-12-20T10:03:00.423Z,2.08
2023-12-20T10:05:32.380Z,1.60
2023-12-20T10:08:00.501Z,2.33
2023-12-20T10:10:35.157Z,2.75
2023-12-20T10:13:11.491Z,1.93
2023-12-20T10:15:43.378Z,2.05
2023-12-20T10:18:12.028Z,2.08
2023-12-20T10:20:38.884Z,2.58
2023-12-20T10:23:05.620Z,3.10
2023-12-20T10:25:33.429Z,2.13
2023-12-20T10:28:10.545Z,2.63
2023-12-20T10:30:37.351Z,2.03
2023-12-20T10:33:04.391Z,1.90
2023-12-20T10:35:31.085Z,1.90
2023-12-20T10:37:57.926Z,1.70
2023-12-20T10:40:26.213Z,2.10
2023-12-20T10:42:53.465Z,2.03
2023-12-20T10:45:20.117Z,1.52
2023-12-20T10:47:48.423Z,2.03
2023-12-20T10:50:16.403Z,2.93
2023-12-20T10:52:43.908Z,1.90
2023-12-20T10:55:12.329Z,2.10
2023-12-20T10:57:40.643Z,2.15
2023-12-20T11:00:13.668Z,1.50
2023-12-20T11:02:41.681Z,2.03
2023-12-20T11:05:24.073Z,2.00
2023-12-20T11:07:58.221Z,1.77
2023-12-20T11:10:30.604Z,2.63
2023-12-20T11:13:13.655Z,2.42
2023-12-20T11:15:41.268Z,2.67
2023-12-20T11:18:07.991Z,2.70
2023-12-20T11:20:39.549Z,2.15
2023-12-20T11:23:07.499Z,2.60
2023-12-20T11:25:54.005Z,2.22
2023-12-20T11:28:25.499Z,1.57
2023-12-20T11:30:53.195Z,1.50
2023-12-20T11:33:30.398Z,2.17
2023-12-20T11:35:58.630Z,1.88
2023-12-20T11:38:25.385Z,2.20
2023-12-20T11:40:55.749Z,1.63
2023-12-20T11:43:38.843Z,1.80
2023-12-20T11:46:13.610Z,1.75
2023-12-20T11:48:45.464Z,1.60
2023-12-20T11:51:13.831Z,1.63
2023-12-20T11:53:41.850Z,1.77
2023-12-20T11:56:08.888Z,2.80
2023-12-20T11:58:36.985Z,1.92
2023-12-20T12:01:05.776Z,1.70
2023-12-20T12:03:32.680Z,2.47
2023-12-20T12:05:59.548Z,1.80
2023-12-20T12:08:26.257Z,2.70
2023-12-20T12:10:53.053Z,2.55
2023-12-20T12:13:19.732Z,1.80
2023-12-20T12:15:46.583Z,2.13
2023-12-20T12:18:17.378Z,2.00
2023-12-20T12:20:44.197Z,1.70
2023-12-20T12:23:10.992Z,2.58
2023-12-20T12:25:42.264Z,2.13
2023-12-20T12:28:10.678Z,2.42
2023-12-20T12:30:42.852Z,2.03
2023-12-20T12:33:14.027Z,1.98
2023-12-20T12:35:41.739Z,2.60
2023-12-20T12:38:09.898Z,2.60
2023-12-20T12:40:37.793Z,1.98
2023-12-20T12:43:05.623Z,1.83
2023-12-20T12:45:32.432Z,1.85
2023-12-20T12:47:59.170Z,1.77
2023-12-20T12:50:26.181Z,2.08
2023-12-20T12:52:52.931Z,1.98
2023-12-20T12:55:19.575Z,1.57
2023-12-20T12:57:46.634Z,1.63
2023-12-20T13:00:13.725Z,2.05
2023-12-20T13:02:43.300Z,1.15
2023-12-20T13:05:10.572Z,1.75
2023-12-20T13:07:38.875Z,1.70
2023-12-20T13:10:07.024Z,2.10
2023-12-20T13:12:34.024Z,2.72
2023-12-20T13:15:00.666Z,1.85
2023-12-20T13:17:29.462Z,2.70
2023-12-20T13:19:57.177Z,2.30
2023-12-20T13:22:23.902Z,2.30
2023-12-20T13:24:50.627Z,2.45
2023-12-20T13:27:17.239Z,1.90
2023-12-20T13:29:43.880Z,1.65
2023-12-20T13:32:10.694Z,1.43
2023-12-20T13:34:37.537Z,1.60
2023-12-20T13:37:05.808Z,2.85
2023-12-20T13:39:32.728Z,1.77
2023-12-20T13:42:01.207Z,2.40
2023-12-20T13:44:28.633Z,2.67
2023-12-20T13:46:55.292Z,2.08
2023-12-20T13:49:22.492Z,1.70
2023-12-20T13:51:49.717Z,3.03
2023-12-20T13:54:17.958Z,1.95
2023-12-20T13:56:56.045Z,2.60
2023-12-20T13:59:29.603Z,2.08
2023-12-20T14:01:58.345Z,1.92
2023-12-20T14:04:40.944Z,1.50
2023-12-20T14:07:12.492Z,1.85
2023-12-20T14:09:39.860Z,2.20
2023-12-20T14:12:06.848Z,2.15
2023-12-20T14:14:33.493Z,1.92
2023-12-20T14:17:00.266Z,2.13
2023-12-20T14:19:27.015Z,2.10
2023-12-20T14:21:53.650Z,1.93
2023-12-20T14:24:20.271Z,2.08
2023-12-20T14:26:46.926Z,2.05
2023-12-20T14:29:13.661Z,1.63
2023-12-20T14:31:42.031Z,1.65
2023-12-20T14:34:09.674Z,2.17
2023-12-20T14:36:36.678Z,1.60
2023-12-20T14:39:04.646Z,1.58
2023-12-20T14:41:32.777Z,1.65
2023-12-20T14:44:08.932Z,2.08
2023-12-20T14:46:35.495Z,1.83
2023-12-20T14:49:06.056Z,2.03
2023-12-20T14:51:37.001Z,2.00
2023-12-20T14:54:03.827Z,1.48
2023-12-20T14:56:30.462Z,1.73
2023-12-20T14:58:59.111Z,1.97
2023-12-20T15:01:27.253Z,1.83
2023-12-20T15:03:54.230Z,2.33
2023-12-20T15:06:21.794Z,2.55
2023-12-20T15:08:48.506Z,1.60
2023-12-20T15:11:15.237Z,2.13
2023-12-20T15:13:42.032Z,1.80
2023-12-20T15:16:08.982Z,2.10
2023-12-20T15:18:35.598Z,2.13
2023-12-20T15:21:02.298Z,2.20
2023-12-20T15:23:30.568Z,1.67
2023-12-20T15:25:57.369Z,1.77
2023-12-20T15:28:25.210Z,2.20
2023-12-20T15:30:52.009Z,2.08
2023-12-20T15:33:18.803Z,1.80
2023-12-20T15:35:45.549Z,1.93
2023-12-20T15:38:12.458Z,1.60
2023-12-20T15:40:39.414Z,2.08
2023-12-20T15:43:06.637Z,2.40
2023-12-20T15:45:33.431Z,2.03
2023-12-20T15:48:00.418Z,2.10
2023-12-20T15:50:27.454Z,2.22
2023-12-20T15:52:54.452Z,1.45
2023-12-20T15:55:21.227Z,2.08
2023-12-20T15:57:52.740Z,2.20
2023-12-20T16:00:22.097Z,2.10
2023-12-20T16:02:49.056Z,2.05
2023-12-20T16:05:15.980Z,1.45
2023-12-20T16:07:43.982Z,1.90
2023-12-20T16:10:11.363Z,1.73
2023-12-20T16:12:38.177Z,2.17
2023-12-20T16:15:05.386Z,2.17
2023-12-20T16:17:32.151Z,2.17
2023-12-20T16:19:59.091Z,1.38
2023-12-20T16:22:27.842Z,2.28
2023-12-20T16:24:55.942Z,1.57
2023-12-20T16:29:51.371Z,2.03
2023-12-20T16:32:19.560Z,1.35
2023-12-20T16:34:47.499Z,1.70
2023-12-20T16:37:14.252Z,1.73
2023-12-20T16:39:41.087Z,2.28
2023-12-20T16:42:07.825Z,2.33
2023-12-20T16:44:35.284Z,1.80
2023-12-20T16:47:05.510Z,2.00
2023-12-20T16:49:34.637Z,1.60
2023-12-20T16:52:04.021Z,2.05
2023-12-20T16:54:32.228Z,1.20
2023-12-20T16:56:59.733Z,1.63
2023-12-20T16:59:27.640Z,2.03
2023-12-20T17:01:55.494Z,2.13
2023-12-20T17:04:24.400Z,1.65
2023-12-20T17:06:51.223Z,1.42
2023-12-20T17:09:17.960Z,1.35
2023-12-20T17:11:45.129Z,1.65
2023-12-20T17:14:14.069Z,2.03
2023-12-20T17:16:43.342Z,1.58
2023-12-20T17:19:10.452Z,1.77
2023-12-20T17:21:37.510Z,1.85
2023-12-20T17:24:04.710Z,1.60
2023-12-20T17:26:31.375Z,1.80
2023-12-20T17:28:58.155Z,1.65
2023-12-20T17:31:24.757Z,1.63
2023-12-20T17:33:51.601Z,1.67
2023-12-20T17:36:18.260Z,1.83
2023-12-20T17:38:44.862Z,2.05
2023-12-20T17:41:11.965Z,1.75
2023-12-20T17:43:38.613Z,1.63
2023-12-20T17:46:06.541Z,1.30
2023-12-20T17:48:33.936Z,1.55
2023-12-20T17:51:00.736Z,2.05
2023-12-20T17:53:28.609Z,2.08
2023-12-20T17:55:57.610Z,1.60
2023-12-20T17:58:24.518Z,2.15
2023-12-20T18:00:51.295Z,2.38
2023-12-20T18:03:19.279Z,2.13
2023-12-20T18:05:46.329Z,1.92
2023-12-20T18:08:14.488Z,2.10
2023-12-20T18:10:41.911Z,1.42
2023-12-20T18:13:08.588Z,1.95
2023-12-20T18:15:39.791Z,1.90
2023-12-20T18:18:10.586Z,2.47
2023-12-20T18:20:37.388Z,1.60
2023-12-20T18:23:07.182Z,2.15
2023-12-20T18:25:33.992Z,2.10
2023-12-20T18:28:04.272Z,2.08
2023-12-20T18:30:30.948Z,1.75
2023-12-20T18:32:57.586Z,1.70
2023-12-20T18:35:24.203Z,1.70
2023-12-20T18:37:51.027Z,1.75
2023-12-20T18:40:20.986Z,1.30
2023-12-20T18:42:47.610Z,2.05
2023-12-20T18:45:14.613Z,2.53
2023-12-20T18:47:41.441Z,1.90
2023-12-20T18:50:10.022Z,1.35
2023-12-20T18:52:37.582Z,1.40
2023-12-20T18:55:04.787Z,1.23
2023-12-20T18:57:31.770Z,1.70
2023-12-20T19:00:00.277Z,1.45
2023-12-20T19:02:32.117Z,1.60
2023-12-20T19:05:01.057Z,1.77
2023-12-20T19:07:27.896Z,2.00
2023-12-20T19:09:54.725Z,1.77
2023-12-20T19:12:21.566Z,1.20
2023-12-20T19:14:48.192Z,2.13
2023-12-20T19:17:14.785Z,1.45
2023-12-20T19:19:41.691Z,1.88
2023-12-20T19:22:08.753Z,1.90
2023-12-20T19:24:35.503Z,2.05
2023-12-20T19:27:02.528Z,2.25
2023-12-20T19:29:33.864Z,1.52
2023-12-20T19:32:01.554Z,1.45
2023-12-20T19:34:28.343Z,1.27
2023-12-20T19:36:55.220Z,1.52
2023-12-20T19:39:21.972Z,1.63
2023-12-20T19:41:48.654Z,1.75
2023-12-20T19:44:17.977Z,1.77
2023-12-20T19:46:44.841Z,2.57
2023-12-20T19:49:11.779Z,2.45
2023-12-20T19:51:38.588Z,1.85
2023-12-20T19:54:06.673Z,2.28
2023-12-20T19:56:33.352Z,1.98
2023-12-20T19:58:59.970Z,1.87
2023-12-20T20:01:26.778Z,1.80
2023-12-20T20:03:53.779Z,1.27
2023-12-20T20:06:22.282Z,1.73
2023-12-20T20:08:48.976Z,2.38
2023-12-20T20:11:26.135Z,1.60
2023-12-20T20:14:01.331Z,1.95
2023-12-20T20:16:28.087Z,1.75
2023-12-20T20:18:54.844Z,1.88
2023-12-20T20:21:21.652Z,1.50
2023-12-20T20:23:48.620Z,2.23
2023-12-20T20:26:15.316Z,1.52
2023-12-20T20:28:41.875Z,2.00
2023-12-20T20:31:09.875Z,1.00
2023-12-20T20:33:36.958Z,1.85
2023-12-20T20:36:08.130Z,1.53
2023-12-20T20:38:34.757Z,1.65
2023-12-20T20:41:01.672Z,2.35
2023-12-20T20:43:28.785Z,1.52
2023-12-20T20:45:55.604Z,2.05
2023-12-20T20:48:30.094Z,1.70
2023-12-20T20:51:01.255Z,1.63
2023-12-20T20:53:28.167Z,1.80
2023-12-20T20:55:55.645Z,1.58
2023-12-20T20:58:22.701Z,1.65
2023-12-20T21:00:50.010Z,1.60
2023-12-20T21:03:16.786Z,1.70
2023-12-20T21:05:43.600Z,1.77
2023-12-20T21:08:12.774Z,1.92
2023-12-20T21:10:41.860Z,1.80
2023-12-20T21:13:08.598Z,1.67
2023-12-20T21:15:35.417Z,1.77
2023-12-20T21:18:02.110Z,1.52
2023-12-20T21:20:28.803Z,1.60
2023-12-20T21:22:56.489Z,1.77
2023-12-20T21:25:23.530Z,1.67
2023-12-20T21:27:50.410Z,1.98
2023-12-20T21:30:17.318Z,1.73
2023-12-20T21:32:46.235Z,1.70
2023-12-20T21:35:13.012Z,1.50
2023-12-20T21:37:42.410Z,1.70
2023-12-20T21:40:09.456Z,1.98
2023-12-20T21:42:36.250Z,1.42
2023-12-20T21:45:03.407Z,1.40
2023-12-20T21:47:30.278Z,1.48
2023-12-20T21:49:57.358Z,1.43
2023-12-20T21:52:24.627Z,2.25
2023-12-20T21:54:51.422Z,1.98
2023-12-20T21:57:18.093Z,1.60
2023-12-20T21:59:44.787Z,1.98
2023-12-20T22:02:12.199Z,1.87
2023-12-20T22:04:38.974Z,2.22
2023-12-20T22:07:05.682Z,1.65
2023-12-20T22:09:32.349Z,2.22
2023-12-20T22:11:59.080Z,1.98
2023-12-20T22:14:27.035Z,1.43
2023-12-20T22:16:53.893Z,1.50
2023-12-20T22:19:20.742Z,1.05
2023-12-20T22:21:47.410Z,1.40
2023-12-20T22:24:14.060Z,1.85
2023-12-20T22:26:40.715Z,1.67
2023-12-20T22:29:07.329Z,1.75
2023-12-20T22:31:34.093Z,1.60
2023-12-20T22:34:01.375Z,1.45
2023-12-20T22:36:29.382Z,1.35
2023-12-20T22:38:57.877Z,2.63
2023-12-20T22:41:24.581Z,1.63
2023-12-20T22:43:51.308Z,2.33
2023-12-20T22:46:18.403Z,1.60
2023-12-20T22:48:45.441Z,1.63
2023-12-20T22:51:12.255Z,1.30
2023-12-20T22:53:38.892Z,1.75
2023-12-20T22:56:05.891Z,1.30
2023-12-20T22:58:32.625Z,1.27
2023-12-20T23:00:59.485Z,2.08
2023-12-20T23:03:27.619Z,1.67
2023-12-20T23:05:54.377Z,2.00
2023-12-20T23:08:21.175Z,1.43
2023-12-20T23:10:47.976Z,1.58
2023-12-20T23:13:15.350Z,1.48
2023-12-20T23:15:42.059Z,1.77
2023-12-20T23:18:09.079Z,2.15
2023-12-20T23:20:36.197Z,2.22
2023-12-20T23:23:03.955Z,1.63
2023-12-20T23:25:30.895Z,1.67
2023-12-20T23:27:57.755Z,2.60
2023-12-20T23:30:24.852Z,1.70
2023-12-20T23:32:51.741Z,2.05
2023-12-20T23:35:18.584Z,1.98
2023-12-20T23:37:45.712Z,1.67
2023-12-20T23:40:12.667Z,1.40
2023-12-20T23:42:39.391Z,1.50
2023-12-20T23:45:07.625Z,1.63
2023-12-20T23:47:34.225Z,1.80
2023-12-20T23:50:01.151Z,1.90
2023-12-20T23:52:27.901Z,1.98
2023-12-20T23:54:57.766Z,1.65
2023-12-20T23:57:24.961Z,2.53
2023-12-20T23:59:51.572Z,1.60
